Grand Oaks, Illinois
Current Conditions -  °F | °C
As of 1:54 PM on Friday 24 Oct 2014 (Local Time) from KPIA Reporting Station
Clear Clear  
Wind Chill: 62°   Ceiling: Unl
Heat Index: 62°   Visibility: 7mi
Dew Point: 54°   Wind: 9mph
Humidity: 75%   Direction: 240°WSW
Pressure: 30.03"   Gusts: NA
Location:  40.5996°N, 89.5548°W
Report Text: KPIA 241854Z 24008KT 7SM CLR 17/12 A3003 RMK AO2 SLP170 T01670122
Loading
Personal Weather Stations






























Interactive Weather Map
Tropical Storm Tracking
New forecast layout! Learn more

10-Day Weather Forecast

Advertisements
Track Severe Weather on mobile